Aviation Digital Data Service (ADDS)

Output produced by METARs form (1703 UTC 21 November 2017)
found at http://aviationweather.gov/adds/metars/
 
KLEB 211120Z 2112/2212 18003KT P6SM SKC 
     FM211400 20010KT P6SM SCT250